Time;durP1;ratioP1;P1;durP2;ratioP2;P2;SDS_P1;SDS_P2;PMS_P1;PMS_P2;Temp;Humidity;BMP_temperature;BMP_pressure;BME280_temperature;BME280_humidity;BME280_pressure;Samples;Min_cycle;Max_cycle;Signal;HPM_P1;HPM_P2
2022/01/27 00:00:02;;;;;;;41.42;18.23;;;6.10;99.90;;;;;;5089859;28;20044;-79
2022/01/27 00:02:44;;;;;;;36.00;16.98;;;6.10;99.90;;;;;;5100304;28;20094;-81
2022/01/27 00:08:15;;;;;;;31.38;16.70;;;6.10;99.90;;;;;;5048697;28;20138;-79
2022/01/27 00:13:13;;;;;;;30.75;16.52;;;6.10;99.90;;;;;;5090213;27;20079;-79
2022/01/27 00:15:39;;;;;;;;;;;6.10;99.90;;;;;;5072562;28;20473;-80
2022/01/27 00:18:13;;;;;;;33.28;17.83;;;6.20;99.90;;;;;;5088513;28;19920;-81
2022/01/27 00:20:39;;;;;;;36.70;19.42;;;6.10;99.90;;;;;;5072259;28;20040;-80
2022/01/27 00:23:05;;;;;;;34.13;18.60;;;6.10;99.90;;;;;;5054520;28;20048;-81
2022/01/27 00:25:31;;;;;;;30.55;17.95;;;6.10;99.90;;;;;;5093649;28;20034;-79
2022/01/27 00:27:56;;;;;;;28.08;17.13;;;6.10;99.90;;;;;;5091046;28;20393;-80
2022/01/27 00:30:22;;;;;;;42.25;20.42;;;6.10;99.90;;;;;;5089527;28;20119;-80
2022/01/27 00:32:48;;;;;;;31.25;18.25;;;6.10;99.90;;;;;;5088237;28;20047;-79
2022/01/27 00:35:13;;;;;;;30.30;16.77;;;6.10;99.90;;;;;;5091222;28;20465;-79
2022/01/27 00:37:39;;;;;;;30.05;17.73;;;6.10;99.90;;;;;;5090437;28;20040;-80
2022/01/27 00:40:07;;;;;;;29.52;16.42;;;6.00;99.90;;;;;;5071362;28;20409;-80
2022/01/27 00:42:33;;;;;;;27.75;16.70;;;6.00;99.90;;;;;;5054209;28;20154;-80
2022/01/27 00:44:59;;;;;;;30.70;15.18;;;6.00;99.90;;;;;;5073887;27;20065;-81
2022/01/27 00:47:24;;;;;;;35.72;17.75;;;6.00;99.90;;;;;;5129509;27;20130;-80
2022/01/27 00:49:50;;;;;;;27.80;15.55;;;5.90;99.90;;;;;;5078608;28;20486;-80
2022/01/27 00:52:24;;;;;;;39.85;19.65;;;5.90;99.90;;;;;;5100497;28;22044;-81
2022/01/27 00:54:52;;;;;;;35.60;17.90;;;5.90;99.90;;;;;;5092815;28;20124;-81
2022/01/27 00:57:35;;;;;;;35.78;19.80;;;5.90;99.90;;;;;;5089449;28;20510;-79
2022/01/27 01:00:03;;;;;;;28.85;19.25;;;5.90;99.90;;;;;;5090378;28;20056;-80
2022/01/27 01:05:29;;;;;;;34.78;19.88;;;5.80;99.90;;;;;;5070681;28;20056;-82
2022/01/27 01:08:01;;;;;;;28.02;17.33;;;5.80;99.90;;;;;;5095626;28;20058;-79
2022/01/27 01:21:25;;;;;;;43.72;22.08;;;5.70;99.90;;;;;;5082041;28;20044;-79
2022/01/27 01:29:49;;;;;;;31.42;18.15;;;5.60;99.90;;;;;;5090958;28;20036;-80
2022/01/27 01:34:54;;;;;;;36.03;21.58;;;5.70;99.90;;;;;;5091452;28;20056;-79
2022/01/27 01:37:20;;;;;;;36.75;21.85;;;5.60;99.90;;;;;;5070788;28;20076;-79
2022/01/27 01:39:45;;;;;;;34.20;21.63;;;5.50;99.90;;;;;;5054182;28;20075;-80
2022/01/27 01:42:11;;;;;;;34.55;20.95;;;5.60;99.90;;;;;;5089530;28;20160;-80
2022/01/27 01:44:41;;;;;;;34.72;22.40;;;5.50;99.90;;;;;;5088598;28;20079;-79
2022/01/27 01:47:07;;;;;;;41.53;22.07;;;5.50;99.90;;;;;;5098857;28;20070;-79
2022/01/27 01:49:33;;;;;;;40.85;20.25;;;5.50;99.90;;;;;;5088601;28;20106;-80
2022/01/27 01:52:04;;;;;;;36.53;21.67;;;5.50;99.90;;;;;;5075298;28;20120;-78
2022/01/27 01:54:30;;;;;;;33.90;22.08;;;5.40;99.90;;;;;;5070801;28;20174;-80
2022/01/27 01:56:55;;;;;;;36.88;19.33;;;5.40;99.90;;;;;;5088539;28;20111;-81
2022/01/27 01:59:21;;;;;;;46.05;23.30;;;5.30;99.90;;;;;;5088656;28;20040;-79
2022/01/27 02:01:47;;;;;;;39.28;23.80;;;5.30;99.90;;;;;;5070335;28;20036;-79
2022/01/27 02:04:13;;;;;;;38.60;24.65;;;5.30;99.90;;;;;;5078311;28;20048;-80
2022/01/27 02:06:51;;;;;;;45.78;24.90;;;5.40;99.90;;;;;;5071010;28;20504;-79
2022/01/27 02:09:51;;;;;;;42.95;25.42;;;5.40;99.90;;;;;;5098120;28;20111;-81
2022/01/27 02:18:01;;;;;;;36.42;25.20;;;5.30;99.90;;;;;;5072934;28;20115;-78
2022/01/27 02:20:32;;;;;;;47.97;24.05;;;5.30;99.90;;;;;;5077149;28;20446;-80
2022/01/27 02:22:58;;;;;;;39.92;23.63;;;5.40;99.90;;;;;;5087861;28;20036;-81
2022/01/27 02:25:24;;;;;;;37.65;25.23;;;5.50;99.90;;;;;;5070604;28;20052;-80
2022/01/27 02:27:54;;;;;;;43.03;25.50;;;5.50;99.90;;;;;;5090895;28;20051;-78
2022/01/27 02:30:20;;;;;;;40.42;23.60;;;5.50;99.90;;;;;;5093515;28;20044;-80
2022/01/27 02:32:45;;;;;;;42.80;27.02;;;5.60;99.90;;;;;;5075118;28;20048;-80
2022/01/27 02:35:11;;;;;;;44.45;23.63;;;5.50;99.90;;;;;;5097169;28;20039;-80
2022/01/27 02:37:37;;;;;;;39.20;25.98;;;5.60;99.90;;;;;;5081746;28;20072;-79
2022/01/27 02:40:04;;;;;;;55.35;29.52;;;5.60;99.90;;;;;;5081733;28;20047;-80
2022/01/27 02:42:35;;;;;;;32.03;24.85;;;5.60;99.90;;;;;;5111683;27;20047;-80
2022/01/27 02:45:07;;;;;;;42.58;24.73;;;5.60;99.90;;;;;;5083948;28;20040;-79
2022/01/27 02:47:33;;;;;;;41.75;26.63;;;5.70;99.90;;;;;;5094260;28;20067;-79
2022/01/27 02:49:59;;;;;;;38.50;26.35;;;5.70;99.90;;;;;;5092550;28;20048;-80
2022/01/27 02:52:24;;;;;;;46.42;28.70;;;5.60;99.90;;;;;;5109331;28;20122;-79
2022/01/27 02:54:50;;;;;;;43.35;26.60;;;5.70;99.90;;;;;;5115661;28;20076;-79
2022/01/27 02:57:16;;;;;;;43.95;25.52;;;5.70;99.90;;;;;;5114682;27;20481;-79
2022/01/27 02:59:42;;;;;;;45.15;28.65;;;5.70;99.90;;;;;;5102522;28;20044;-78
2022/01/27 03:02:07;;;;;;;41.63;27.42;;;5.70;99.90;;;;;;5070508;28;20141;-80
2022/01/27 03:04:34;;;;;;;44.08;26.10;;;5.70;99.90;;;;;;5079202;28;20166;-77
2022/01/27 03:07:05;;;;;;;43.22;26.52;;;5.70;99.90;;;;;;5110753;28;20039;-78
2022/01/27 03:09:35;;;;;;;34.90;22.80;;;5.70;99.90;;;;;;5095865;28;20560;-80
2022/01/27 03:12:07;;;;;;;37.63;27.08;;;5.70;99.90;;;;;;5094848;28;20063;-79
2022/01/27 03:14:35;;;;;;;45.00;27.70;;;5.80;99.90;;;;;;5107115;28;20050;-78
2022/01/27 03:17:02;;;;;;;38.30;23.73;;;5.80;99.90;;;;;;5113507;28;20413;-79
2022/01/27 03:19:28;;;;;;;48.78;25.95;;;5.70;99.90;;;;;;5079156;28;20043;-79
2022/01/27 03:21:55;;;;;;;41.13;25.55;;;5.80;99.90;;;;;;5095683;28;20052;-80
2022/01/27 03:24:22;;;;;;;42.53;24.40;;;5.80;99.90;;;;;;5104583;28;20177;-78
2022/01/27 03:26:48;;;;;;;47.17;26.67;;;5.80;99.90;;;;;;5108579;28;20044;-78
2022/01/27 03:29:16;;;;;;;45.55;24.42;;;5.80;99.90;;;;;;5111682;28;20044;-77
2022/01/27 03:31:42;;;;;;;41.75;23.95;;;5.80;99.90;;;;;;5077057;28;20109;-81
2022/01/27 03:34:08;;;;;;;46.42;26.70;;;5.90;99.90;;;;;;5092539;28;20075;-79
2022/01/27 03:36:33;;;;;;;41.72;23.98;;;5.80;99.90;;;;;;5094535;28;20040;-79
2022/01/27 03:38:59;;;;;;;41.80;24.95;;;5.90;99.90;;;;;;5093344;28;20124;-77
2022/01/27 03:41:31;;;;;;;36.95;24.08;;;5.90;99.90;;;;;;5078010;28;20130;-78
2022/01/27 03:43:57;;;;;;;45.05;25.15;;;5.80;99.90;;;;;;5107105;28;20039;-80
2022/01/27 03:46:22;;;;;;;38.33;20.00;;;5.80;99.90;;;;;;5091465;28;20040;-79
2022/01/27 03:48:48;;;;;;;55.03;23.13;;;5.90;99.90;;;;;;5106614;28;20052;-80
2022/01/27 03:51:13;;;;;;;41.60;23.85;;;5.80;99.90;;;;;;5076230;28;20044;-79
2022/01/27 03:53:39;;;;;;;44.70;25.25;;;5.80;99.90;;;;;;5080619;28;20050;-79
2022/01/27 03:56:05;;;;;;;36.55;21.70;;;5.80;99.90;;;;;;5110958;28;20043;-79
2022/01/27 03:58:30;;;;;;;47.05;25.42;;;5.80;99.90;;;;;;5098249;28;20071;-78
2022/01/27 04:00:56;;;;;;;41.58;22.65;;;5.90;99.90;;;;;;5076788;28;20040;-76
2022/01/27 04:03:23;;;;;;;39.05;20.00;;;5.90;99.90;;;;;;5090039;28;20474;-79
2022/01/27 04:05:52;;;;;;;39.92;23.27;;;5.90;99.90;;;;;;5089674;28;20051;-79
2022/01/27 04:08:20;;;;;;;42.20;22.30;;;6.00;99.90;;;;;;5090244;28;20101;-78
2022/01/27 04:10:46;;;;;;;37.13;20.73;;;6.00;99.90;;;;;;5089869;28;20044;-79
2022/01/27 04:13:12;;;;;;;41.88;21.88;;;6.00;99.90;;;;;;5096617;28;20145;-79
2022/01/27 04:15:40;;;;;;;46.90;22.85;;;6.00;99.90;;;;;;5099440;28;20126;-78
2022/01/27 04:18:06;;;;;;;38.88;19.63;;;6.00;99.90;;;;;;5070730;28;20058;-79
2022/01/27 04:20:32;;;;;;;35.08;21.48;;;6.00;99.90;;;;;;5088059;28;20047;-78
2022/01/27 04:22:57;;;;;;;29.77;17.77;;;6.00;99.90;;;;;;5072038;28;20048;-79
2022/01/27 04:25:23;;;;;;;37.08;19.05;;;6.00;99.90;;;;;;5095414;28;20063;-80
2022/01/27 04:27:53;;;;;;;47.45;20.77;;;6.00;99.90;;;;;;5090693;28;20051;-78
2022/01/27 04:30:22;;;;;;;42.97;20.27;;;6.00;99.90;;;;;;5106751;28;20077;-79
2022/01/27 04:32:58;;;;;;;42.13;19.95;;;6.00;99.90;;;;;;5089264;28;20047;-79
2022/01/27 04:35:27;;;;;;;53.60;24.35;;;6.00;99.90;;;;;;5071345;28;20040;-79
2022/01/27 04:38:00;;;;;;;34.13;18.35;;;6.00;99.90;;;;;;5089201;28;20087;-79
2022/01/27 04:40:42;;;;;;;42.53;22.95;;;6.10;99.90;;;;;;5103714;28;20048;-79
2022/01/27 04:43:22;;;;;;;48.35;21.73;;;6.00;99.90;;;;;;5073543;28;20043;-79
2022/01/27 04:48:46;;;;;;;37.38;19.80;;;6.00;99.90;;;;;;5070860;28;20056;-79
2022/01/27 04:51:15;;;;;;;42.85;23.55;;;6.00;99.90;;;;;;5091685;28;20036;-80
2022/01/27 04:53:51;;;;;;;47.88;22.05;;;6.00;99.90;;;;;;5109059;28;20059;-79
2022/01/27 04:56:18;;;;;;;37.72;20.17;;;6.00;99.90;;;;;;5077092;28;20075;-80
2022/01/27 04:58:47;;;;;;;38.60;18.95;;;6.00;99.90;;;;;;5091752;28;20052;-78
2022/01/27 05:01:13;;;;;;;36.03;18.67;;;6.10;99.90;;;;;;5070267;28;20047;-75
2022/01/27 05:03:54;;;;;;;30.52;18.92;;;6.10;99.90;;;;;;5094085;28;20428;-80
2022/01/27 05:06:19;;;;;;;38.15;18.88;;;6.10;99.90;;;;;;5101612;28;20055;-80
2022/01/27 05:08:45;;;;;;;41.85;19.65;;;6.20;99.90;;;;;;5102282;28;20043;-77
2022/01/27 05:11:18;;;;;;;31.90;17.75;;;6.20;99.90;;;;;;5092471;28;20126;-80
2022/01/27 05:13:56;;;;;;;48.10;20.05;;;6.20;99.90;;;;;;5079341;28;20052;-79
2022/01/27 05:16:21;;;;;;;43.03;18.88;;;6.20;99.90;;;;;;5063348;28;20048;-78
2022/01/27 05:18:47;;;;;;;73.70;21.65;;;6.20;99.90;;;;;;5108528;28;20470;-78
2022/01/27 05:21:13;;;;;;;33.65;17.52;;;6.20;99.90;;;;;;5091635;28;20039;-74
2022/01/27 05:23:38;;;;;;;36.60;17.45;;;6.20;99.90;;;;;;5076398;28;20040;-79
2022/01/27 05:26:04;;;;;;;52.00;19.50;;;6.20;99.90;;;;;;5088288;28;20135;-78
2022/01/27 05:28:30;;;;;;;38.00;19.08;;;6.30;99.90;;;;;;5106190;28;20036;-78
2022/01/27 05:30:56;;;;;;;34.70;16.00;;;6.30;99.90;;;;;;5073784;28;20036;-79
2022/01/27 05:33:22;;;;;;;37.47;17.38;;;6.30;99.90;;;;;;5087211;28;20056;-79
2022/01/27 05:35:47;;;;;;;39.95;18.38;;;6.20;99.90;;;;;;5109245;28;20391;-78
2022/01/27 05:38:17;;;;;;;42.78;18.85;;;6.30;99.90;;;;;;5088643;28;20044;-77
2022/01/27 05:40:43;;;;;;;63.87;18.90;;;6.20;99.90;;;;;;5070504;28;20047;-73
2022/01/27 05:43:10;;;;;;;46.25;20.45;;;6.20;99.90;;;;;;5081954;28;20486;-79
2022/01/27 05:45:36;;;;;;;38.78;20.85;;;6.20;99.90;;;;;;5088259;28;20097;-79
2022/01/27 05:48:03;;;;;;;40.65;19.70;;;6.20;99.90;;;;;;5086106;28;20102;-79
2022/01/27 05:50:28;;;;;;;49.58;18.80;;;6.10;99.90;;;;;;5088881;28;20059;-80
2022/01/27 05:52:54;;;;;;;57.70;21.15;;;6.10;99.90;;;;;;5088890;28;20033;-80
2022/01/27 05:55:20;;;;;;;50.03;21.35;;;6.00;99.90;;;;;;5070453;28;20126;-79
2022/01/27 05:57:47;;;;;;;50.47;21.55;;;6.10;99.90;;;;;;5098064;28;20054;-79
2022/01/27 06:00:13;;;;;;;57.53;22.58;;;6.10;99.90;;;;;;5107987;28;20122;-73
2022/01/27 06:02:39;;;;;;;50.33;21.10;;;6.10;99.90;;;;;;5110575;28;20482;-79
2022/01/27 06:05:05;;;;;;;53.20;24.35;;;6.10;99.90;;;;;;5095733;28;20040;-80
2022/01/27 06:07:30;;;;;;;56.80;21.08;;;6.20;99.90;;;;;;5092614;28;20071;-79
2022/01/27 06:09:57;;;;;;;54.92;21.23;;;6.20;99.90;;;;;;5099181;28;20029;-79
2022/01/27 06:12:23;;;;;;;50.28;21.80;;;6.20;99.90;;;;;;5076129;28;20059;-78
2022/01/27 06:14:49;;;;;;;56.97;22.70;;;6.10;99.90;;;;;;5093341;28;20478;-81
2022/01/27 06:17:14;;;;;;;48.08;19.13;;;6.20;99.90;;;;;;5091825;28;20032;-79
2022/01/27 06:19:44;;;;;;;47.05;19.05;;;6.20;99.90;;;;;;5092703;28;20044;-81
2022/01/27 06:22:11;;;;;;;45.83;19.48;;;6.20;99.90;;;;;;5078219;28;20044;-83
2022/01/27 06:24:42;;;;;;;54.70;22.67;;;6.20;99.90;;;;;;5092721;28;20486;-80
2022/01/27 06:27:09;;;;;;;37.63;19.08;;;6.20;99.90;;;;;;5100880;28;20052;-80
2022/01/27 06:29:36;;;;;;;60.80;23.25;;;6.20;99.90;;;;;;5102175;28;20047;-79
2022/01/27 06:32:02;;;;;;;43.45;20.10;;;6.20;99.90;;;;;;5101715;28;20040;-82
2022/01/27 06:34:28;;;;;;;42.47;19.95;;;6.30;99.90;;;;;;5103343;28;20078;-80
2022/01/27 06:36:54;;;;;;;48.80;20.40;;;6.30;99.90;;;;;;5084153;28;20090;-78
2022/01/27 06:39:19;;;;;;;46.72;21.15;;;6.20;99.90;;;;;;5107633;28;20036;-78
2022/01/27 06:41:45;;;;;;;54.22;19.23;;;6.30;99.90;;;;;;5078089;28;20036;-78
2022/01/27 06:44:11;;;;;;;38.38;19.80;;;6.30;99.90;;;;;;5098141;28;20050;-78
2022/01/27 06:46:36;;;;;;;47.90;19.77;;;6.30;99.90;;;;;;5094797;28;20056;-79
2022/01/27 06:49:03;;;;;;;53.20;20.25;;;6.20;99.90;;;;;;5073963;28;20066;-79
2022/01/27 06:51:29;;;;;;;53.05;20.75;;;6.20;99.90;;;;;;5086437;28;20493;-78
2022/01/27 06:53:55;;;;;;;48.75;21.90;;;6.30;99.90;;;;;;5089573;28;20124;-76
2022/01/27 06:56:21;;;;;;;52.63;22.55;;;6.30;99.90;;;;;;5092179;28;20028;-78
2022/01/27 06:58:47;;;;;;;45.15;19.67;;;6.30;99.90;;;;;;5090612;28;20097;-78
2022/01/27 07:01:13;;;;;;;46.03;20.55;;;6.40;99.90;;;;;;5072260;28;20036;-73
2022/01/27 07:03:38;;;;;;;49.60;21.25;;;6.30;99.90;;;;;;5091274;28;20146;-77
2022/01/27 07:06:04;;;;;;;46.38;21.10;;;6.30;99.90;;;;;;5077882;28;20115;-79
2022/01/27 07:08:29;;;;;;;47.55;21.35;;;6.40;99.90;;;;;;5091957;28;20039;-80
2022/01/27 07:10:55;;;;;;;43.05;19.95;;;6.40;99.90;;;;;;5097722;28;20031;-78
2022/01/27 07:13:20;;;;;;;44.15;20.90;;;6.40;99.90;;;;;;5104074;28;20046;-78
2022/01/27 07:15:46;;;;;;;38.50;18.95;;;6.40;99.90;;;;;;5099987;28;20040;-77
2022/01/27 07:18:12;;;;;;;37.80;18.40;;;6.40;99.90;;;;;;5098007;28;20036;-78
2022/01/27 07:20:37;;;;;;;46.03;20.35;;;6.40;99.90;;;;;;5074285;28;20040;-79
2022/01/27 07:23:05;;;;;;;40.90;18.35;;;6.50;99.90;;;;;;5091573;28;20482;-79
2022/01/27 07:25:31;;;;;;;41.40;20.10;;;6.40;99.90;;;;;;5093052;28;20036;-78
2022/01/27 07:27:57;;;;;;;48.42;18.83;;;6.40;99.90;;;;;;5072215;28;20483;-78
2022/01/27 07:30:22;;;;;;;40.63;18.45;;;6.50;99.90;;;;;;5098719;28;20032;-79
2022/01/27 07:32:48;;;;;;;53.70;21.42;;;6.50;99.90;;;;;;5095290;28;20089;-80
2022/01/27 07:35:14;;;;;;;44.92;20.05;;;6.60;99.90;;;;;;5093104;28;20513;-79
2022/01/27 07:37:41;;;;;;;54.70;19.45;;;6.60;99.90;;;;;;5090752;28;20407;-78
2022/01/27 07:40:08;;;;;;;49.70;19.33;;;6.50;99.90;;;;;;5094915;28;20396;-79
2022/01/27 07:42:34;;;;;;;47.05;17.52;;;6.60;99.90;;;;;;5070887;28;20048;-77
2022/01/27 07:44:59;;;;;;;38.58;16.23;;;6.60;99.90;;;;;;5071381;28;20032;-79
2022/01/27 07:47:25;;;;;;;43.40;17.23;;;6.70;99.90;;;;;;5082433;28;20069;-78
2022/01/27 07:49:50;;;;;;;48.92;16.55;;;6.70;99.90;;;;;;5091203;28;20047;-77
2022/01/27 07:52:18;;;;;;;46.72;16.48;;;6.80;99.90;;;;;;5083087;28;20409;-77
2022/01/27 07:54:43;;;;;;;50.45;15.05;;;6.70;99.90;;;;;;5086229;28;20070;-78
2022/01/27 07:57:09;;;;;;;43.03;15.80;;;6.80;99.90;;;;;;5081183;28;20039;-78
2022/01/27 07:59:35;;;;;;;37.90;14.82;;;6.80;99.90;;;;;;5097388;28;20070;-77
2022/01/27 08:02:01;;;;;;;27.77;12.00;;;6.80;99.90;;;;;;5070816;28;20036;-79
2022/01/27 08:04:26;;;;;;;36.83;15.15;;;6.90;99.90;;;;;;5095880;28;20501;-79
2022/01/27 08:06:52;;;;;;;31.40;12.20;;;6.90;99.90;;;;;;5089339;28;20133;-78
2022/01/27 08:09:18;;;;;;;34.83;15.57;;;7.00;99.90;;;;;;5103543;27;20127;-77
2022/01/27 08:11:43;;;;;;;34.10;12.88;;;7.00;99.90;;;;;;5090988;28;20044;-77
2022/01/27 08:14:09;;;;;;;27.20;13.65;;;7.10;99.90;;;;;;5099873;27;20067;-78
2022/01/27 08:16:34;;;;;;;39.97;13.07;;;7.10;99.90;;;;;;5113167;27;20031;-78
2022/01/27 08:19:00;;;;;;;32.88;13.10;;;7.10;99.90;;;;;;5103010;28;20073;-79
2022/01/27 08:21:25;;;;;;;34.53;11.82;;;7.20;99.90;;;;;;5094412;28;20119;-78
2022/01/27 08:23:53;;;;;;;26.75;10.95;;;7.20;99.90;;;;;;5097610;27;20050;-78
2022/01/27 08:26:30;;;;;;;28.75;10.77;;;7.30;99.90;;;;;;5090970;27;20143;-77
2022/01/27 08:29:08;;;;;;;36.45;12.40;;;7.30;99.90;;;;;;5093650;28;20044;-77
2022/01/27 08:31:42;;;;;;;35.35;12.77;;;7.30;99.90;;;;;;5093530;28;20051;-76
2022/01/27 08:34:14;;;;;;;35.60;12.93;;;7.30;99.90;;;;;;5107209;28;20036;-79
2022/01/27 08:36:41;;;;;;;25.90;9.93;;;7.30;99.90;;;;;;5075139;28;20052;-78
2022/01/27 08:39:06;;;;;;;40.65;10.07;;;7.40;99.90;;;;;;5103177;28;20137;-80
2022/01/27 08:41:33;;;;;;;33.83;11.20;;;7.40;99.90;;;;;;5107667;28;20052;-80
2022/01/27 08:43:59;;;;;;;34.58;11.35;;;7.50;99.90;;;;;;5092286;28;20060;-78
2022/01/27 08:46:24;;;;;;;36.13;8.73;;;7.40;99.90;;;;;;5107593;28;20047;-78
2022/01/27 08:48:50;;;;;;;51.15;13.85;;;7.40;99.90;;;;;;5076353;28;20059;-80
2022/01/27 08:51:21;;;;;;;39.67;11.73;;;7.40;99.90;;;;;;5089332;28;20078;-81
2022/01/27 08:53:46;;;;;;;35.78;11.77;;;7.40;99.90;;;;;;5108296;28;20044;-83
2022/01/27 08:56:13;;;;;;;23.70;8.70;;;7.40;99.90;;;;;;5090673;28;20040;-83
2022/01/27 08:58:39;;;;;;;31.33;9.35;;;7.40;99.90;;;;;;5055080;28;20043;-84
2022/01/27 09:01:05;;;;;;;35.50;9.27;;;7.40;99.90;;;;;;5075974;28;20090;-82
2022/01/27 09:03:30;;;;;;;25.90;9.43;;;7.40;99.90;;;;;;5070694;28;20135;-85
2022/01/27 09:05:56;;;;;;;25.98;10.35;;;7.40;99.90;;;;;;5090034;28;20072;-87
2022/01/27 09:08:21;;;;;;;43.38;10.38;;;7.60;99.90;;;;;;5090690;28;20078;-84
2022/01/27 09:10:48;;;;;;;25.50;8.95;;;7.60;99.90;;;;;;5089246;28;20047;-83
2022/01/27 09:13:15;;;;;;;24.05;8.18;;;7.60;99.90;;;;;;5080853;28;20036;-81
2022/01/27 09:15:42;;;;;;;34.95;8.65;;;7.70;99.90;;;;;;5089444;28;20040;-82
2022/01/27 09:18:08;;;;;;;25.67;8.80;;;7.70;99.90;;;;;;5100866;27;20485;-83
2022/01/27 09:20:34;;;;;;;22.20;7.05;;;7.80;99.90;;;;;;5103698;28;20051;-83
2022/01/27 09:23:02;;;;;;;25.27;7.07;;;7.90;99.90;;;;;;5108594;28;20089;-83
2022/01/27 09:25:40;;;;;;;30.98;8.63;;;7.90;99.90;;;;;;5103940;28;20032;-82
2022/01/27 09:28:07;;;;;;;21.48;5.65;;;7.90;99.90;;;;;;5071869;28;20052;-83
2022/01/27 09:30:33;;;;;;;22.75;6.75;;;8.00;99.90;;;;;;5090004;28;20041;-84
2022/01/27 09:32:59;;;;;;;33.22;7.75;;;8.00;99.90;;;;;;5094352;28;20117;-85
2022/01/27 09:35:24;;;;;;;23.20;6.88;;;8.00;99.90;;;;;;5103650;28;20035;-85
2022/01/27 09:37:50;;;;;;;24.15;7.20;;;8.00;99.90;;;;;;5102501;27;20489;-84
2022/01/27 09:40:16;;;;;;;23.70;7.72;;;7.90;99.90;;;;;;5095651;28;20048;-83
2022/01/27 09:42:52;;;;;;;23.52;5.90;;;8.00;99.90;;;;;;5094304;28;20072;-84
2022/01/27 09:45:18;;;;;;;30.08;7.95;;;8.00;99.90;;;;;;5094594;28;20555;-84
2022/01/27 09:47:53;;;;;;;35.72;8.70;;;8.00;99.90;;;;;;5097754;28;20075;-86
2022/01/27 09:50:28;;;;;;;40.95;8.13;;;8.10;99.90;;;;;;5093876;28;20040;-81
2022/01/27 09:52:54;;;;;;;24.88;6.72;;;8.00;99.90;;;;;;5074793;28;20512;-84
2022/01/27 09:55:20;;;;;;;33.75;8.10;;;8.10;99.90;;;;;;5092663;28;20500;-83
2022/01/27 09:57:46;;;;;;;34.72;8.77;;;8.10;99.90;;;;;;5107836;28;20172;-84
2022/01/27 10:00:13;;;;;;;28.17;8.20;;;8.10;99.90;;;;;;5093066;28;20131;-82
2022/01/27 10:02:40;;;;;;;26.25;7.95;;;8.10;99.90;;;;;;5096928;28;20088;-84
2022/01/27 10:05:07;;;;;;;29.92;7.10;;;8.10;99.90;;;;;;5081481;28;20051;-82
2022/01/27 10:07:39;;;;;;;31.75;6.85;;;8.20;99.90;;;;;;5094292;28;20042;-84
2022/01/27 10:10:12;;;;;;;27.90;8.20;;;8.30;99.90;;;;;;5088609;28;20800;-84
2022/01/27 10:12:46;;;;;;;32.75;7.93;;;8.20;99.90;;;;;;5106555;28;20044;-84
2022/01/27 10:15:17;;;;;;;29.88;6.93;;;8.20;99.90;;;;;;5084688;28;20055;-81
2022/01/27 10:18:18;;;;;;;25.70;7.68;;;8.20;99.90;;;;;;5111115;28;20032;-75
2022/01/27 10:20:59;;;;;;;29.42;6.95;;;8.20;99.90;;;;;;5106349;28;20050;-81
2022/01/27 10:23:32;;;;;;;24.13;7.20;;;8.20;99.90;;;;;;5098476;27;20062;-81
2022/01/27 10:26:10;;;;;;;30.77;6.80;;;8.30;99.90;;;;;;5133178;27;20469;-80
2022/01/27 10:31:19;;;;;;;43.53;6.90;;;8.30;99.90;;;;;;5090785;28;20051;-81
2022/01/27 10:33:50;;;;;;;17.13;5.07;;;8.40;99.90;;;;;;5103247;28;20055;-84
2022/01/27 10:36:24;;;;;;;25.20;5.53;;;8.40;99.90;;;;;;5101595;27;20433;-81
2022/01/27 10:38:58;;;;;;;24.35;6.05;;;8.40;99.90;;;;;;5073779;28;20103;-83
2022/01/27 10:41:29;;;;;;;28.95;6.05;;;8.50;99.90;;;;;;5092065;28;20043;-80
2022/01/27 10:44:14;;;;;;;18.35;6.38;;;8.60;99.90;;;;;;5077135;28;20073;-82
2022/01/27 10:46:49;;;;;;;26.27;5.82;;;8.60;99.90;;;;;;5104344;28;20059;-81
2022/01/27 10:49:42;;;;;;;24.50;6.53;;;8.60;99.90;;;;;;5082847;28;20096;-79
2022/01/27 10:52:41;;;;;;;21.08;5.72;;;8.60;99.90;;;;;;5090953;28;20052;-74
2022/01/27 10:55:28;;;;;;;27.08;6.70;;;8.60;99.90;;;;;;5094929;28;20073;-81
2022/01/27 10:58:48;;;;;;;37.15;6.22;;;8.60;99.90;;;;;;5091156;28;20312;-81
2022/01/27 11:01:59;;;;;;;24.27;5.57;;;8.60;99.90;;;;;;5090676;28;20441;-81
2022/01/27 11:04:43;;;;;;;17.98;5.75;;;8.60;99.90;;;;;;5094132;28;20067;-82
2022/01/27 11:07:16;;;;;;;22.20;4.95;;;8.60;99.90;;;;;;5097037;28;20075;-84
2022/01/27 11:09:44;;;;;;;17.58;4.82;;;8.60;99.90;;;;;;5097991;27;20048;-83
2022/01/27 11:12:17;;;;;;;28.05;6.13;;;8.70;99.90;;;;;;5112709;27;20051;-80
2022/01/27 11:14:51;;;;;;;22.33;4.45;;;8.70;99.90;;;;;;5076431;28;20093;-76
2022/01/27 11:17:20;;;;;;;28.77;6.57;;;8.60;99.90;;;;;;5092229;28;20077;-84
2022/01/27 11:27:26;;;;;;;25.05;4.32;;;8.70;99.90;;;;;;5091906;28;20577;-81
2022/01/27 11:30:18;;;;;;;24.98;4.57;;;8.70;99.90;;;;;;5098064;28;20500;-81
2022/01/27 11:33:02;;;;;;;42.22;6.22;;;8.70;99.90;;;;;;5090741;28;20059;-80
2022/01/27 11:35:28;;;;;;;16.98;5.10;;;8.80;99.90;;;;;;5082208;28;20493;-79
2022/01/27 11:37:56;;;;;;;23.08;5.32;;;8.80;99.90;;;;;;5055121;28;20072;-79
2022/01/27 11:40:43;;;;;;;19.35;3.88;;;8.80;99.90;;;;;;5096231;28;20039;-80
2022/01/27 11:43:11;;;;;;;33.38;6.53;;;8.90;99.90;;;;;;5090168;28;20138;-79
2022/01/27 11:45:52;;;;;;;25.00;5.55;;;8.90;99.90;;;;;;5089508;28;20060;-80
2022/01/27 11:48:24;;;;;;;29.75;7.45;;;8.90;99.90;;;;;;5091443;28;20056;-81
2022/01/27 11:51:12;;;;;;;52.38;8.45;;;8.80;99.90;;;;;;5096052;28;20072;-80
2022/01/27 11:53:43;;;;;;;22.00;4.88;;;8.90;99.90;;;;;;5087607;28;20498;-80
2022/01/27 11:56:24;;;;;;;30.05;5.55;;;8.90;99.90;;;;;;5094386;27;20036;-83
2022/01/27 11:58:52;;;;;;;44.88;6.20;;;8.90;99.90;;;;;;5097542;28;20491;-81
2022/01/27 12:01:29;;;;;;;35.30;7.32;;;8.90;99.90;;;;;;5105200;28;20036;-82
2022/01/27 12:04:05;;;;;;;25.25;6.18;;;8.90;99.90;;;;;;5089978;28;20040;-81
2022/01/27 12:06:38;;;;;;;30.15;6.93;;;8.90;99.90;;;;;;5100087;28;20115;-78
2022/01/27 12:09:19;;;;;;;25.88;6.60;;;8.90;99.90;;;;;;5101919;28;20040;-79
2022/01/27 12:11:57;;;;;;;28.15;4.97;;;8.90;99.90;;;;;;5106131;28;20489;-81
2022/01/27 12:14:48;;;;;;;28.95;6.32;;;8.90;99.90;;;;;;5073642;28;20139;-80
2022/01/27 12:17:15;;;;;;;29.85;5.15;;;8.90;99.90;;;;;;5089908;28;20503;-79
2022/01/27 12:20:13;;;;;;;40.53;6.30;;;8.90;99.90;;;;;;5107002;28;20075;-80
2022/01/27 12:22:48;;;;;;;23.02;5.40;;;8.90;99.90;;;;;;5090189;28;20547;-80
2022/01/27 12:25:15;;;;;;;23.10;5.88;;;8.90;99.90;;;;;;5110240;28;20527;-80
2022/01/27 12:27:41;;;;;;;15.95;5.05;;;9.00;99.90;;;;;;5086912;28;20032;-81
2022/01/27 12:30:11;;;;;;;31.63;6.25;;;9.00;99.90;;;;;;5070847;28;20063;-81
2022/01/27 12:32:37;;;;;;;24.38;5.22;;;9.00;99.90;;;;;;5071346;28;20040;-80
2022/01/27 12:35:07;;;;;;;16.85;4.18;;;9.00;99.90;;;;;;5106091;28;20474;-82
2022/01/27 12:37:35;;;;;;;24.77;4.40;;;9.00;99.90;;;;;;5091725;28;20087;-80
2022/01/27 12:40:07;;;;;;;24.38;4.68;;;9.00;99.90;;;;;;5110109;28;20039;-80
2022/01/27 12:42:38;;;;;;;20.08;3.50;;;9.00;99.90;;;;;;5088751;28;20048;-80
2022/01/27 12:45:13;;;;;;;38.15;6.95;;;9.00;99.90;;;;;;5097241;28;20044;-81
2022/01/27 12:47:42;;;;;;;37.65;5.50;;;9.00;99.90;;;;;;5104192;27;20076;-83
2022/01/27 12:50:12;;;;;;;28.83;5.43;;;9.00;99.90;;;;;;5110334;28;20036;-83
2022/01/27 12:52:42;;;;;;;20.90;4.00;;;9.10;99.90;;;;;;5109873;28;20043;-82
2022/01/27 12:55:18;;;;;;;29.88;5.00;;;9.10;99.90;;;;;;5110397;28;20588;-81
2022/01/27 12:57:54;;;;;;;24.20;5.20;;;9.10;99.90;;;;;;5096322;28;20409;-81
2022/01/27 13:00:20;;;;;;;18.25;4.57;;;9.00;99.90;;;;;;5110498;27;20034;-79
2022/01/27 13:02:45;;;;;;;35.20;7.30;;;9.00;99.90;;;;;;5111778;27;20051;-83
2022/01/27 13:05:11;;;;;;;19.08;4.60;;;9.00;99.90;;;;;;5112419;27;20051;-82
2022/01/27 13:07:37;;;;;;;22.45;4.05;;;9.00;99.90;;;;;;5122388;27;20478;-80
2022/01/27 13:10:11;;;;;;;18.42;4.72;;;9.00;99.90;;;;;;5111763;28;20039;-81
2022/01/27 13:12:50;;;;;;;28.95;4.65;;;9.00;99.90;;;;;;5098526;28;20044;-84
2022/01/27 13:15:22;;;;;;;29.67;6.10;;;9.00;99.90;;;;;;5095720;27;20130;-81
2022/01/27 13:18:02;;;;;;;22.10;3.85;;;9.00;99.90;;;;;;5114139;27;20035;-83
2022/01/27 13:20:35;;;;;;;28.90;4.85;;;9.00;99.90;;;;;;5083537;28;20539;-85
2022/01/27 13:25:50;;;;;;;30.63;5.65;;;9.00;99.90;;;;;;5106125;28;20056;-81
2022/01/27 13:28:22;;;;;;;22.80;5.38;;;9.00;99.90;;;;;;5091096;28;20053;-81
2022/01/27 13:30:51;;;;;;;27.52;4.78;;;9.00;99.90;;;;;;5107859;28;20083;-82
2022/01/27 13:33:22;;;;;;;32.47;6.63;;;8.90;99.90;;;;;;5097610;28;20136;-80
2022/01/27 13:35:49;;;;;;;24.98;4.75;;;9.00;99.90;;;;;;5089089;28;20048;-83
2022/01/27 13:38:21;;;;;;;25.25;4.50;;;9.00;99.90;;;;;;5089338;28;20068;-80
2022/01/27 13:43:40;;;;;;;32.70;5.65;;;9.00;99.90;;;;;;5071594;28;20044;-81